createdAt,value
2018-06-28T00:00:15.279Z,87.46
2018-06-28T00:02:43.734Z,87.40
2018-06-28T00:05:12.245Z,87.70
2018-06-28T00:07:40.715Z,87.48
2018-06-28T00:10:09.383Z,87.52
2018-06-28T00:12:39.073Z,87.99
2018-06-28T00:15:07.611Z,87.57
2018-06-28T00:17:36.058Z,87.83
2018-06-28T00:20:04.877Z,88.24
2018-06-28T00:22:33.328Z,88.31
2018-06-28T00:25:02.684Z,88.30
2018-06-28T00:27:31.200Z,88.64
2018-06-28T00:29:59.766Z,88.59
2018-06-28T00:32:28.222Z,88.89
2018-06-28T00:34:56.682Z,88.72
2018-06-28T00:37:25.220Z,88.89
2018-06-28T00:39:53.695Z,89.06
2018-06-28T00:42:22.166Z,89.05
2018-06-28T00:44:50.642Z,89.05
2018-06-28T00:47:19.243Z,89.02
2018-06-28T00:49:47.693Z,89.26
2018-06-28T00:52:16.156Z,89.09
2018-06-28T00:54:44.609Z,89.52
2018-06-28T00:57:13.080Z,89.51
2018-06-28T00:59:41.683Z,89.46
2018-06-28T01:02:10.158Z,89.98
2018-06-28T01:04:38.610Z,89.67
2018-06-28T01:07:07.234Z,90.15
2018-06-28T01:09:35.687Z,89.79
2018-06-28T01:12:04.253Z,90.23
2018-06-28T01:14:32.821Z,90.25
2018-06-28T01:17:01.317Z,90.30
2018-06-28T01:19:30.676Z,90.48
2018-06-28T01:21:59.167Z,90.46
2018-06-28T01:24:27.793Z,90.39
2018-06-28T01:27:00.074Z,90.53
2018-06-28T01:29:28.550Z,90.80
2018-06-28T01:31:58.578Z,90.86
2018-06-28T01:34:27.035Z,90.71
2018-06-28T01:36:55.550Z,90.84
2018-06-28T01:39:24.050Z,90.84
2018-06-28T01:42:03.768Z,90.89
2018-06-28T01:44:33.409Z,91.19
2018-06-28T01:47:01.855Z,90.92
2018-06-28T01:49:30.320Z,90.84
2018-06-28T01:51:58.778Z,91.32
2018-06-28T01:54:27.271Z,91.44
2018-06-28T01:56:55.701Z,91.23
2018-06-28T01:59:24.151Z,91.55
2018-06-28T02:01:52.685Z,91.54
2018-06-28T02:04:21.181Z,91.18
2018-06-28T02:06:54.132Z,91.29
2018-06-28T02:09:22.648Z,91.79
2018-06-28T02:11:51.133Z,91.71
2018-06-28T02:14:19.636Z,91.56
2018-06-28T02:16:48.117Z,91.55
2018-06-28T02:19:16.610Z,91.33
2018-06-28T02:21:45.116Z,91.51
2018-06-28T02:24:13.734Z,91.67
2018-06-28T02:26:42.231Z,91.66
2018-06-28T02:29:11.781Z,91.54
2018-06-28T02:31:40.572Z,91.65
2018-06-28T02:34:09.120Z,91.74
2018-06-28T02:36:37.619Z,91.68
2018-06-28T02:39:07.835Z,91.86
2018-06-28T02:41:36.358Z,91.83
2018-06-28T02:44:05.066Z,91.91
2018-06-28T02:46:33.530Z,91.95
2018-06-28T02:49:02.007Z,91.98
2018-06-28T02:51:30.502Z,91.93
2018-06-28T02:53:59.007Z,91.84
2018-06-28T02:56:27.623Z,92.00
2018-06-28T02:58:56.102Z,92.09
2018-06-28T03:01:24.592Z,92.36
2018-06-28T03:03:53.077Z,91.83
2018-06-28T03:06:21.538Z,92.30
2018-06-28T03:08:50.236Z,92.07
2018-06-28T03:11:18.766Z,92.03
2018-06-28T03:13:47.271Z,91.92
2018-06-28T03:16:15.784Z,92.31
2018-06-28T03:18:44.862Z,92.22
2018-06-28T03:21:13.380Z,92.16
2018-06-28T03:23:41.895Z,92.13
2018-06-28T03:26:10.370Z,92.19
2018-06-28T03:28:38.856Z,92.08
2018-06-28T03:31:07.505Z,92.15
2018-06-28T03:33:35.952Z,92.36
2018-06-28T03:36:04.526Z,92.40
2018-06-28T03:38:32.970Z,92.18
2018-06-28T03:41:01.459Z,92.18
2018-06-28T03:43:30.199Z,91.71
2018-06-28T03:45:58.693Z,92.04
2018-06-28T03:48:27.286Z,92.07
2018-06-28T03:50:55.766Z,91.88
2018-06-28T03:53:24.308Z,91.73
2018-06-28T03:55:52.772Z,92.01
2018-06-28T03:58:21.234Z,91.78
2018-06-28T04:00:49.890Z,91.74
2018-06-28T04:03:18.342Z,91.48
2018-06-28T04:05:46.820Z,91.56
2018-06-28T04:08:15.487Z,91.15
2018-06-28T04:10:43.946Z,90.95
2018-06-28T04:13:12.382Z,90.69
2018-06-28T04:15:40.887Z,89.20
2018-06-28T04:18:09.382Z,87.06
2018-06-28T04:20:37.980Z,86.58
2018-06-28T04:23:06.482Z,85.38
2018-06-28T04:25:34.936Z,83.13
2018-06-28T04:28:03.647Z,81.27
2018-06-28T04:30:32.148Z,79.99
2018-06-28T04:33:00.629Z,80.17
2018-06-28T04:35:29.136Z,80.53
2018-06-28T04:37:57.633Z,81.82
2018-06-28T04:40:26.143Z,82.77
2018-06-28T04:42:54.634Z,83.66
2018-06-28T04:45:23.086Z,84.51
2018-06-28T04:47:51.672Z,84.21
2018-06-28T04:50:20.139Z,81.85
2018-06-28T04:52:48.730Z,81.22
2018-06-28T04:55:17.200Z,82.17
2018-06-28T04:57:46.305Z,81.31
2018-06-28T05:00:14.836Z,81.31
2018-06-28T05:02:43.299Z,83.03
2018-06-28T05:05:11.762Z,81.46
2018-06-28T05:07:40.374Z,77.02
2018-06-28T05:10:08.847Z,72.52
2018-06-28T05:12:37.465Z,69.44
2018-06-28T05:15:05.938Z,68.07
2018-06-28T05:17:34.645Z,67.41
2018-06-28T05:20:03.279Z,66.17
2018-06-28T05:22:31.798Z,67.36
2018-06-28T05:25:00.287Z,65.67
2018-06-28T05:27:28.851Z,65.72
2018-06-28T05:29:57.408Z,65.09
2018-06-28T05:32:25.934Z,66.26
2018-06-28T05:34:54.471Z,66.83
2018-06-28T05:37:23.016Z,66.60
2018-06-28T05:39:52.866Z,61.68
2018-06-28T05:42:21.473Z,60.20
2018-06-28T05:44:49.983Z,59.49
2018-06-28T05:47:18.543Z,58.55
2018-06-28T05:49:47.086Z,59.09
2018-06-28T05:52:15.599Z,59.62
2018-06-28T05:54:44.162Z,58.65
2018-06-28T05:57:12.694Z,59.12
2018-06-28T05:59:41.255Z,59.56
2018-06-28T06:02:09.746Z,57.33
2018-06-28T06:04:38.242Z,58.48
2018-06-28T06:07:07.130Z,56.45
2018-06-28T06:09:35.653Z,56.88
2018-06-28T06:12:04.253Z,55.08
2018-06-28T06:14:32.771Z,55.09
2018-06-28T06:17:01.723Z,58.02
2018-06-28T06:19:30.238Z,54.79
2018-06-28T06:21:58.751Z,54.83
2018-06-28T06:24:27.455Z,52.67
2018-06-28T06:26:55.958Z,53.73
2018-06-28T06:29:24.489Z,51.85
2018-06-28T06:31:53.002Z,53.33
2018-06-28T06:34:21.542Z,54.06
2018-06-28T06:36:50.301Z,53.00
2018-06-28T06:39:18.796Z,53.44
2018-06-28T06:41:47.306Z,51.07
2018-06-28T06:44:15.963Z,56.65
2018-06-28T06:46:44.571Z,58.28
2018-06-28T06:49:13.285Z,53.47
2018-06-28T06:51:41.827Z,51.61
2018-06-28T06:54:10.342Z,51.24
2018-06-28T06:56:40.310Z,51.81
2018-06-28T06:59:08.983Z,53.23
2018-06-28T07:01:37.479Z,51.04
2018-06-28T07:04:06.506Z,51.68
2018-06-28T07:06:35.017Z,50.53
2018-06-28T07:09:03.835Z,50.65
2018-06-28T07:11:33.223Z,50.36
2018-06-28T07:14:01.866Z,51.27
2018-06-28T07:16:30.459Z,51.18
2018-06-28T07:18:59.106Z,53.02
2018-06-28T07:21:28.263Z,54.32
2018-06-28T07:23:56.788Z,56.49
2018-06-28T07:26:25.315Z,61.53
2018-06-28T07:28:54.003Z,60.07
2018-06-28T07:31:22.720Z,59.94
2018-06-28T07:33:51.336Z,60.54
2018-06-28T07:36:19.927Z,60.23
2018-06-28T07:38:48.830Z,59.37
2018-06-28T07:41:17.330Z,60.27
2018-06-28T07:43:45.854Z,60.31
2018-06-28T07:46:14.401Z,59.12
2018-06-28T07:48:43.423Z,57.72
2018-06-28T07:51:11.986Z,58.31
2018-06-28T07:53:40.503Z,57.22
2018-06-28T07:56:09.046Z,56.78
2018-06-28T07:58:37.550Z,56.58
2018-06-28T08:01:06.078Z,55.39
2018-06-28T08:03:34.749Z,54.70
2018-06-28T08:06:03.276Z,54.76
2018-06-28T08:08:31.806Z,54.38
2018-06-28T08:11:00.695Z,53.12
2018-06-28T08:13:29.196Z,52.76
2018-06-28T08:15:58.077Z,53.11
2018-06-28T08:18:26.687Z,51.64
2018-06-28T08:20:55.338Z,52.02
2018-06-28T08:23:24.177Z,50.32
2018-06-28T08:25:52.699Z,48.16
2018-06-28T08:28:21.360Z,49.67
2018-06-28T08:30:50.000Z,49.92
2018-06-28T08:33:18.519Z,46.74
2018-06-28T08:35:47.093Z,46.63
2018-06-28T08:38:15.718Z,46.79
2018-06-28T08:40:44.229Z,46.71
2018-06-28T08:43:12.862Z,47.10
2018-06-28T08:45:41.376Z,46.83
2018-06-28T08:48:10.048Z,48.28
2018-06-28T08:50:38.818Z,49.26
2018-06-28T08:53:07.432Z,46.59
2018-06-28T08:55:36.021Z,46.25
2018-06-28T08:58:04.634Z,45.43
2018-06-28T09:00:33.198Z,47.76
2018-06-28T09:03:01.761Z,47.43
2018-06-28T09:05:30.301Z,44.86
2018-06-28T09:07:58.944Z,47.04
2018-06-28T09:10:27.465Z,45.58
2018-06-28T09:12:55.973Z,46.17
2018-06-28T09:15:24.563Z,45.83
2018-06-28T09:17:53.532Z,45.53
2018-06-28T09:21:25.014Z,45.08
2018-06-28T09:23:53.577Z,44.78
2018-06-28T09:26:22.097Z,44.98
2018-06-28T09:28:50.602Z,45.80
2018-06-28T09:31:19.163Z,45.71
2018-06-28T09:33:48.202Z,44.98
2018-06-28T09:36:16.747Z,44.60
2018-06-28T09:38:45.262Z,42.47
2018-06-28T09:41:13.803Z,43.36
2018-06-28T09:43:42.334Z,42.14
2018-06-28T09:46:11.108Z,41.42
2018-06-28T09:48:40.038Z,42.21
2018-06-28T09:51:09.142Z,42.70
2018-06-28T09:53:38.211Z,42.31
2018-06-28T09:56:07.866Z,43.51
2018-06-28T09:58:36.592Z,43.06
2018-06-28T10:01:05.511Z,43.32
2018-06-28T10:03:34.374Z,43.79
2018-06-28T10:06:03.219Z,42.28
2018-06-28T10:08:31.955Z,42.87
2018-06-28T10:11:00.862Z,42.37
2018-06-28T10:13:29.855Z,42.37
2018-06-28T10:15:58.605Z,42.21
2018-06-28T10:18:27.320Z,40.63
2018-06-28T10:20:56.190Z,42.25
2018-06-28T10:23:24.816Z,41.75
2018-06-28T10:25:53.588Z,42.30
2018-06-28T10:28:22.100Z,42.17
2018-06-28T10:30:51.577Z,41.35
2018-06-28T10:33:20.343Z,41.27
2018-06-28T10:35:49.494Z,41.60
2018-06-28T10:38:18.458Z,40.89
2018-06-28T10:40:47.054Z,40.48
2018-06-28T10:43:15.563Z,41.15
2018-06-28T10:45:45.234Z,40.69
2018-06-28T10:48:13.758Z,40.17
2018-06-28T10:50:42.316Z,41.41
2018-06-28T10:53:10.990Z,40.39
2018-06-28T10:55:39.538Z,40.57
2018-06-28T10:58:08.089Z,39.54
2018-06-28T11:00:36.631Z,40.30
2018-06-28T11:03:05.258Z,38.75
2018-06-28T11:05:33.984Z,39.63
2018-06-28T11:08:02.482Z,37.36
2018-06-28T11:10:31.044Z,37.09
2018-06-28T11:12:59.558Z,37.07
2018-06-28T11:15:28.080Z,37.28
2018-06-28T11:17:56.586Z,37.99
2018-06-28T11:20:25.122Z,37.71
2018-06-28T11:22:53.702Z,37.87
2018-06-28T11:25:22.290Z,37.42
2018-06-28T11:27:50.807Z,37.15
2018-06-28T11:30:19.325Z,37.12
2018-06-28T11:32:47.862Z,36.91
2018-06-28T11:35:16.374Z,38.04
2018-06-28T11:37:44.870Z,37.08
2018-06-28T11:40:13.439Z,37.71
2018-06-28T11:42:41.910Z,36.20
2018-06-28T11:45:10.458Z,37.01
2018-06-28T11:47:39.437Z,39.01
2018-06-28T11:50:07.972Z,39.35
2018-06-28T11:52:36.487Z,39.55
2018-06-28T11:55:05.145Z,39.67
2018-06-28T11:57:33.633Z,38.62
2018-06-28T12:00:02.159Z,38.84
2018-06-28T12:02:31.108Z,39.13
2018-06-28T12:04:59.624Z,38.62
2018-06-28T12:07:28.169Z,38.12
2018-06-28T12:09:56.716Z,37.94
2018-06-28T12:12:25.874Z,35.96
2018-06-28T12:14:54.461Z,37.27
2018-06-28T12:17:22.962Z,38.81
2018-06-28T12:19:51.902Z,36.81
2018-06-28T12:22:20.464Z,37.39
2018-06-28T12:24:49.028Z,37.48
2018-06-28T12:27:17.816Z,37.48
2018-06-28T12:29:46.326Z,38.10
2018-06-28T12:32:14.826Z,37.96
2018-06-28T12:34:43.361Z,37.68
2018-06-28T12:37:11.858Z,37.33
2018-06-28T12:39:40.377Z,37.95
2018-06-28T12:42:08.973Z,38.35
2018-06-28T12:44:37.906Z,37.64
2018-06-28T12:47:45.149Z,38.57
2018-06-28T12:50:13.670Z,38.43
2018-06-28T12:52:51.142Z,38.04
2018-06-28T12:55:21.119Z,37.58
2018-06-28T12:57:50.182Z,37.62
2018-06-28T13:00:19.083Z,37.37
2018-06-28T13:02:47.932Z,37.70
2018-06-28T13:05:17.098Z,37.48
2018-06-28T13:07:46.526Z,38.14
2018-06-28T13:10:16.656Z,38.22
2018-06-28T13:12:45.197Z,37.54
2018-06-28T13:15:14.657Z,37.71
2018-06-28T13:17:43.272Z,36.96
2018-06-28T13:20:12.333Z,36.98
2018-06-28T13:22:41.322Z,37.15
2018-06-28T13:25:11.422Z,37.59
2018-06-28T13:27:40.005Z,37.65
2018-06-28T13:30:09.866Z,37.68
2018-06-28T13:32:38.414Z,38.48
2018-06-28T13:35:07.055Z,38.63
2018-06-28T13:37:35.587Z,38.32
2018-06-28T13:40:04.200Z,38.20
2018-06-28T13:42:32.761Z,36.81
2018-06-28T13:45:01.247Z,38.28
2018-06-28T13:47:29.764Z,37.93
2018-06-28T13:49:58.390Z,38.09
2018-06-28T13:52:26.900Z,38.85
2018-06-28T13:54:55.447Z,38.13
2018-06-28T13:57:24.004Z,37.63
2018-06-28T13:59:52.494Z,37.91
2018-06-28T14:02:22.054Z,38.57
2018-06-28T14:04:50.564Z,38.67
2018-06-28T14:07:19.066Z,39.49
2018-06-28T14:09:47.910Z,39.60
2018-06-28T14:12:16.450Z,39.16
2018-06-28T14:14:45.971Z,38.55
2018-06-28T14:17:14.559Z,37.35
2018-06-28T14:19:43.070Z,37.76
2018-06-28T14:22:11.662Z,37.15
2018-06-28T14:24:40.210Z,37.65
2018-06-28T14:27:08.789Z,37.59
2018-06-28T14:29:37.307Z,37.38
2018-06-28T14:32:06.055Z,37.48
2018-06-28T14:34:34.545Z,36.35
2018-06-28T14:37:03.052Z,37.30
2018-06-28T14:39:31.637Z,37.02
2018-06-28T14:42:00.189Z,37.37
2018-06-28T14:44:28.751Z,37.76
2018-06-28T14:46:57.288Z,38.56
2018-06-28T14:49:25.786Z,38.76
2018-06-28T14:51:54.425Z,38.78
2018-06-28T14:54:22.934Z,39.06
2018-06-28T14:56:51.474Z,38.98
2018-06-28T14:59:19.982Z,38.75
2018-06-28T15:01:48.497Z,38.01
2018-06-28T15:04:17.482Z,37.74
2018-06-28T15:06:45.909Z,38.22
2018-06-28T15:09:14.406Z,38.18
2018-06-28T15:11:43.702Z,38.12
2018-06-28T15:14:12.244Z,38.60
2018-06-28T15:16:40.843Z,38.44
2018-06-28T15:19:09.382Z,38.23
2018-06-28T15:21:37.903Z,37.93
2018-06-28T15:24:06.559Z,37.73
2018-06-28T15:27:38.077Z,37.89
2018-06-28T15:30:06.671Z,38.85
2018-06-28T15:32:35.160Z,39.12
2018-06-28T15:35:03.692Z,39.70
2018-06-28T15:37:32.312Z,39.40
2018-06-28T15:40:00.807Z,38.11
2018-06-28T15:42:29.345Z,38.17
2018-06-28T15:44:57.957Z,38.04
2018-06-28T15:47:26.461Z,38.10
2018-06-28T15:49:55.058Z,38.25
2018-06-28T15:52:23.582Z,38.63
2018-06-28T15:54:52.106Z,39.02
2018-06-28T15:57:20.661Z,38.59
2018-06-28T15:59:49.146Z,39.07
2018-06-28T16:02:17.653Z,39.34
2018-06-28T16:04:46.314Z,39.87
2018-06-28T16:07:14.805Z,39.63
2018-06-28T16:09:43.361Z,39.59
2018-06-28T16:12:12.019Z,38.82
2018-06-28T16:14:40.543Z,38.18
2018-06-28T16:17:09.085Z,38.71
2018-06-28T16:19:37.678Z,38.46
2018-06-28T16:22:06.256Z,38.96
2018-06-28T16:24:34.997Z,38.99
2018-06-28T16:27:03.727Z,38.43
2018-06-28T16:29:32.234Z,38.52
2018-06-28T16:32:00.982Z,38.08
2018-06-28T16:34:29.483Z,38.53
2018-06-28T16:36:58.003Z,38.57
2018-06-28T16:39:26.601Z,38.98
2018-06-28T16:41:55.311Z,39.89
2018-06-28T16:44:23.893Z,39.35
2018-06-28T16:46:52.462Z,38.94
2018-06-28T16:49:20.971Z,39.27
2018-06-28T16:51:49.614Z,39.10
2018-06-28T16:54:18.127Z,39.48
2018-06-28T16:56:46.708Z,39.32
2018-06-28T16:59:15.326Z,39.31
2018-06-28T17:01:43.828Z,39.05
2018-06-28T17:04:12.371Z,38.90
2018-06-28T17:06:40.994Z,39.04
2018-06-28T17:09:10.677Z,39.43
2018-06-28T17:11:39.327Z,39.37
2018-06-28T17:14:08.600Z,39.41
2018-06-28T17:16:37.581Z,39.60
2018-06-28T17:19:06.282Z,39.06
2018-06-28T17:21:34.786Z,39.43
2018-06-28T17:24:04.001Z,39.09
2018-06-28T17:26:32.501Z,39.63
2018-06-28T17:29:00.996Z,39.11
2018-06-28T17:31:29.983Z,39.24
2018-06-28T17:33:58.506Z,39.17
2018-06-28T17:36:27.015Z,39.10
2018-06-28T17:38:55.589Z,39.21
2018-06-28T17:41:24.123Z,38.64
2018-06-28T17:43:52.715Z,38.52
2018-06-28T17:46:21.226Z,38.63
2018-06-28T17:48:49.740Z,39.33
2018-06-28T17:51:18.376Z,39.19
2018-06-28T17:53:46.919Z,39.51
2018-06-28T17:56:15.423Z,38.90
2018-06-28T17:58:43.977Z,37.91
2018-06-28T18:01:12.491Z,38.09
2018-06-28T18:03:41.008Z,37.33
2018-06-28T18:06:09.594Z,36.68
2018-06-28T18:08:38.187Z,37.40
2018-06-28T18:11:06.731Z,36.51
2018-06-28T18:13:35.229Z,35.90
2018-06-28T18:16:03.833Z,35.32
2018-06-28T18:18:32.360Z,35.74
2018-06-28T18:21:01.127Z,36.11
2018-06-28T18:23:29.658Z,36.56
2018-06-28T18:25:58.285Z,37.34
2018-06-28T18:28:26.873Z,38.95
2018-06-28T18:30:55.412Z,39.84
2018-06-28T18:33:23.937Z,40.05
2018-06-28T18:35:52.797Z,40.21
2018-06-28T18:38:21.297Z,40.80
2018-06-28T18:40:49.844Z,40.94
2018-06-28T18:43:18.403Z,41.41
2018-06-28T18:45:46.910Z,41.83
2018-06-28T18:48:15.411Z,41.92
2018-06-28T18:50:44.511Z,42.33
2018-06-28T18:53:13.009Z,42.05
2018-06-28T18:55:41.798Z,42.32
2018-06-28T18:58:10.677Z,42.46
2018-06-28T19:00:39.227Z,41.97
2018-06-28T19:03:07.914Z,41.69
2018-06-28T19:05:36.446Z,40.60
2018-06-28T19:08:04.998Z,39.55
2018-06-28T19:10:38.636Z,39.44
2018-06-28T19:13:07.184Z,39.77
2018-06-28T19:15:41.201Z,41.46
2018-06-28T19:18:10.821Z,41.85
2018-06-28T19:20:39.378Z,41.21
2018-06-28T19:23:13.165Z,40.95
2018-06-28T19:25:41.696Z,40.33
2018-06-28T19:28:10.283Z,40.00
2018-06-28T19:30:44.169Z,40.59
2018-06-28T19:33:12.767Z,40.73
2018-06-28T19:35:41.395Z,40.85
2018-06-28T19:38:10.310Z,41.88
2018-06-28T19:40:44.595Z,42.42
2018-06-28T19:43:13.262Z,43.93
2018-06-28T19:45:41.838Z,45.24
2018-06-28T19:48:10.624Z,46.29
2018-06-28T19:50:44.427Z,46.65
2018-06-28T19:53:14.560Z,46.93
2018-06-28T19:55:43.163Z,46.63
2018-06-28T19:58:11.742Z,46.90
2018-06-28T20:00:45.744Z,47.08
2018-06-28T20:03:19.696Z,47.19
2018-06-28T20:05:48.176Z,47.26
2018-06-28T20:08:16.667Z,47.40
2018-06-28T20:10:45.211Z,48.06
2018-06-28T20:13:19.027Z,48.06
2018-06-28T20:15:55.819Z,48.54
2018-06-28T20:18:29.719Z,48.82
2018-06-28T20:21:00.076Z,49.21
2018-06-28T20:23:29.650Z,49.65
2018-06-28T20:25:58.257Z,50.39
2018-06-28T20:29:35.823Z,50.42
2018-06-28T20:32:09.753Z,50.75
2018-06-28T20:34:39.258Z,51.62
2018-06-28T20:37:07.829Z,52.08
2018-06-28T20:39:38.062Z,52.16
2018-06-28T20:42:06.622Z,52.54
2018-06-28T20:44:35.147Z,53.46
2018-06-28T20:47:03.704Z,53.90
2018-06-28T20:49:32.193Z,53.98
2018-06-28T20:52:00.694Z,54.65
2018-06-28T20:54:29.233Z,54.47
2018-06-28T20:56:58.791Z,54.93
2018-06-28T20:59:27.575Z,55.03
2018-06-28T21:01:56.079Z,55.23
2018-06-28T21:04:24.604Z,55.07
2018-06-28T21:06:53.183Z,55.40
2018-06-28T21:09:21.766Z,55.64
2018-06-28T21:11:50.453Z,56.14
2018-06-28T21:14:18.973Z,56.49
2018-06-28T21:16:47.489Z,56.69
2018-06-28T21:19:16.030Z,57.11
2018-06-28T21:21:44.544Z,57.33
2018-06-28T21:24:13.055Z,57.95
2018-06-28T21:26:41.634Z,58.06
2018-06-28T21:29:10.261Z,58.55
2018-06-28T21:31:38.860Z,59.68
2018-06-28T21:34:07.577Z,60.58
2018-06-28T21:36:36.094Z,60.98
2018-06-28T21:39:06.766Z,61.57
2018-06-28T21:41:35.324Z,61.86
2018-06-28T21:44:03.793Z,61.75
2018-06-28T21:46:32.654Z,61.93
2018-06-28T21:49:01.281Z,62.00
2018-06-28T21:51:29.777Z,62.48
2018-06-28T21:53:58.571Z,62.46
2018-06-28T21:56:27.228Z,62.73
2018-06-28T21:58:55.778Z,62.84
2018-06-28T22:01:24.363Z,62.68
2018-06-28T22:03:53.346Z,63.02
2018-06-28T22:06:21.906Z,63.24
2018-06-28T22:08:50.407Z,63.62
2018-06-28T22:11:19.074Z,63.86
2018-06-28T22:13:47.566Z,64.06
2018-06-28T22:16:16.199Z,64.41
2018-06-28T22:18:44.867Z,64.77
2018-06-28T22:21:13.460Z,65.22
2018-06-28T22:23:41.999Z,65.03
2018-06-28T22:26:11.975Z,65.09
2018-06-28T22:28:40.515Z,65.08
2018-06-28T22:31:09.057Z,65.14
2018-06-28T22:33:37.649Z,65.07
2018-06-28T22:36:06.146Z,64.51
2018-06-28T22:38:34.661Z,64.87
2018-06-28T22:41:03.634Z,64.69
2018-06-28T22:43:32.127Z,64.19
2018-06-28T22:46:00.715Z,64.76
2018-06-28T22:48:29.240Z,64.41
2018-06-28T22:50:57.743Z,64.78
2018-06-28T22:53:26.740Z,64.69
2018-06-28T22:55:55.262Z,65.14
2018-06-28T22:58:23.736Z,65.69
2018-06-28T23:00:52.270Z,65.64
2018-06-28T23:03:20.826Z,65.99
2018-06-28T23:05:49.315Z,66.48
2018-06-28T23:08:18.061Z,66.39
2018-06-28T23:10:46.760Z,67.08
2018-06-28T23:13:15.274Z,67.10
2018-06-28T23:15:43.760Z,67.80
2018-06-28T23:18:12.285Z,67.81
2018-06-28T23:20:40.778Z,68.20
2018-06-28T23:23:09.650Z,68.37
2018-06-28T23:25:38.152Z,68.87
2018-06-28T23:28:06.691Z,68.96
2018-06-28T23:30:35.230Z,69.57
2018-06-28T23:33:03.925Z,69.63
2018-06-28T23:35:32.502Z,69.82
2018-06-28T23:38:01.015Z,70.21
2018-06-28T23:40:29.517Z,70.81
2018-06-28T23:42:58.042Z,71.42
2018-06-28T23:45:26.548Z,71.74
2018-06-28T23:47:55.062Z,72.44
2018-06-28T23:50:23.553Z,72.84
2018-06-28T23:52:52.250Z,72.66
2018-06-28T23:55:20.706Z,73.30
2018-06-28T23:57:50.414Z,73.12
